createdAt,value
2022-10-01T00:00:40.667Z,1.20
2022-10-01T00:01:42.489Z,1.20
2022-10-01T00:02:44.304Z,1.17
2022-10-01T00:03:47.797Z,1.05
2022-10-01T00:04:50.870Z,1.25
2022-10-01T00:06:20.484Z,1.15
2022-10-01T00:07:23.082Z,1.08
2022-10-01T00:08:24.870Z,1.30
2022-10-01T00:09:26.885Z,1.00
2022-10-01T00:10:30.272Z,1.13
2022-10-01T00:11:34.470Z,1.15
2022-10-01T00:12:37.364Z,0.95
2022-10-01T00:13:39.956Z,0.98
2022-10-01T00:14:41.828Z,1.20
2022-10-01T00:15:43.820Z,1.30
2022-10-01T00:16:45.748Z,1.35
2022-10-01T00:17:47.762Z,1.10
2022-10-01T00:18:50.439Z,1.20
2022-10-01T00:19:52.299Z,1.10
2022-10-01T00:20:54.062Z,1.42
2022-10-01T00:21:55.863Z,0.90
2022-10-01T00:22:57.592Z,1.05
2022-10-01T00:24:05.244Z,1.00
2022-10-01T00:25:07.373Z,1.05
2022-10-01T00:26:17.836Z,1.27
2022-10-01T00:27:19.904Z,0.90
2022-10-01T00:28:21.689Z,1.20
2022-10-01T00:29:23.488Z,1.20
2022-10-01T00:30:25.414Z,0.95
2022-10-01T00:31:27.987Z,1.20
2022-10-01T00:32:32.297Z,1.23
2022-10-01T00:33:34.634Z,0.93
2022-10-01T00:34:36.441Z,1.05
2022-10-01T00:35:38.170Z,1.20
2022-10-01T00:36:39.954Z,1.05
2022-10-01T00:37:42.759Z,1.48
2022-10-01T00:38:46.401Z,0.80
2022-10-01T00:39:48.107Z,1.27
2022-10-01T00:40:50.641Z,1.33
2022-10-01T00:41:52.694Z,1.05
2022-10-01T00:42:54.427Z,1.10
2022-10-01T00:43:59.105Z,0.90
2022-10-01T00:45:02.367Z,0.90
2022-10-01T00:46:12.481Z,1.00
2022-10-01T00:47:40.076Z,1.25
2022-10-01T00:49:15.196Z,1.42
2022-10-01T00:50:28.337Z,0.98
2022-10-01T00:51:35.441Z,1.10
2022-10-01T00:52:41.347Z,1.20
2022-10-01T00:53:44.657Z,1.20
2022-10-01T00:55:01.508Z,1.30
2022-10-01T00:56:03.375Z,1.23
2022-10-01T00:57:07.398Z,1.33
2022-10-01T00:58:12.222Z,1.10
2022-10-01T00:59:16.351Z,1.10
2022-10-01T01:00:18.266Z,1.23
2022-10-01T01:01:21.097Z,1.10
2022-10-01T01:02:23.195Z,0.82
2022-10-01T01:03:25.471Z,1.05
2022-10-01T01:04:27.959Z,1.08
2022-10-01T01:05:29.753Z,1.48
2022-10-01T01:06:31.606Z,1.10
2022-10-01T01:07:35.146Z,1.00
2022-10-01T01:08:36.962Z,1.17
2022-10-01T01:09:46.491Z,1.02
2022-10-01T01:11:04.184Z,1.00
2022-10-01T01:12:32.978Z,1.40
2022-10-01T01:13:52.950Z,1.00
2022-10-01T01:15:16.126Z,1.33
2022-10-01T01:16:34.073Z,1.50
2022-10-01T01:17:47.603Z,1.27
2022-10-01T01:19:27.574Z,1.30
2022-10-01T01:20:58.107Z,1.35
2022-10-01T01:22:05.050Z,1.25
2022-10-01T01:23:16.101Z,1.15
2022-10-01T01:24:33.209Z,1.20
2022-10-01T01:25:47.931Z,1.27
2022-10-01T01:27:02.579Z,1.40
2022-10-01T01:28:26.552Z,1.17
2022-10-01T01:29:38.523Z,1.30
2022-10-01T01:30:41.509Z,1.50
2022-10-01T01:31:48.974Z,1.23
2022-10-01T01:33:04.782Z,1.20
2022-10-01T01:34:13.141Z,1.52
2022-10-01T01:35:32.151Z,1.40
2022-10-01T01:36:38.085Z,1.60
2022-10-01T01:37:48.974Z,1.30
2022-10-01T01:38:55.887Z,1.52
2022-10-01T01:40:00.419Z,1.40
2022-10-01T01:41:03.589Z,1.40
2022-10-01T01:42:10.483Z,1.23
2022-10-01T01:43:20.643Z,1.45
2022-10-01T01:44:28.461Z,1.45
2022-10-01T01:45:31.014Z,1.15
2022-10-01T01:46:38.254Z,1.73
2022-10-01T01:47:42.236Z,1.60
2022-10-01T01:48:47.612Z,1.40
2022-10-01T01:49:51.701Z,1.45
2022-10-01T01:51:32.962Z,1.40
2022-10-01T01:52:35.552Z,1.65
2022-10-01T01:53:37.917Z,1.67
2022-10-01T01:54:40.445Z,1.50
2022-10-01T01:55:45.077Z,1.80
2022-10-01T01:56:49.704Z,1.70
2022-10-01T01:57:51.584Z,2.00
2022-10-01T01:58:57.437Z,1.83
2022-10-01T01:59:59.632Z,1.60
2022-10-01T02:01:02.254Z,1.70
2022-10-01T02:02:06.925Z,1.63
2022-10-01T02:03:09.268Z,1.80
2022-10-01T02:04:19.783Z,1.85
2022-10-01T02:05:26.128Z,1.85
2022-10-01T02:06:33.853Z,2.10
2022-10-01T02:07:35.504Z,1.90
2022-10-01T02:08:52.197Z,1.83
2022-10-01T02:10:24.985Z,1.95
2022-10-01T02:11:32.565Z,2.13
2022-10-01T02:12:47.454Z,1.92
2022-10-01T02:13:56.796Z,1.92
2022-10-01T02:15:09.825Z,2.25
2022-10-01T02:16:32.901Z,1.90
2022-10-01T02:17:54.171Z,1.88
2022-10-01T02:19:27.245Z,1.90
2022-10-01T02:20:39.508Z,1.90
2022-10-01T02:21:46.476Z,2.40
2022-10-01T02:23:09.991Z,1.95
2022-10-01T02:24:23.058Z,2.25
2022-10-01T02:25:31.522Z,2.03
2022-10-01T02:26:35.665Z,2.05
2022-10-01T02:27:45.421Z,2.30
2022-10-01T02:28:51.335Z,2.17
2022-10-01T02:29:56.249Z,1.85
2022-10-01T02:31:00.590Z,1.90
2022-10-01T02:32:02.552Z,1.98
2022-10-01T02:33:06.744Z,2.10
2022-10-01T02:34:12.701Z,1.90
2022-10-01T02:35:18.154Z,2.10
2022-10-01T02:36:22.301Z,2.15
2022-10-01T02:37:27.201Z,2.30
2022-10-01T02:38:30.940Z,1.92
2022-10-01T02:39:35.004Z,1.83
2022-10-01T02:40:42.288Z,1.90
2022-10-01T02:41:45.995Z,2.00
2022-10-01T02:42:52.941Z,1.90
2022-10-01T02:44:01.476Z,2.13
2022-10-01T02:45:05.380Z,1.95
2022-10-01T02:46:21.467Z,2.55
2022-10-01T02:47:38.028Z,2.20
2022-10-01T02:48:39.822Z,1.95
2022-10-01T02:49:41.791Z,2.00
2022-10-01T02:50:48.414Z,2.00
2022-10-01T02:51:53.507Z,1.90
2022-10-01T02:53:06.166Z,2.60
2022-10-01T02:54:16.199Z,2.45
2022-10-01T02:55:24.157Z,2.20
2022-10-01T02:56:48.944Z,2.22
2022-10-01T02:57:51.700Z,2.05
2022-10-01T02:58:54.007Z,2.42
2022-10-01T02:59:59.901Z,1.95
2022-10-01T03:01:01.889Z,2.58
2022-10-01T03:02:04.273Z,1.95
2022-10-01T03:03:06.237Z,2.25
2022-10-01T03:04:08.004Z,2.30
2022-10-01T03:05:09.869Z,2.30
2022-10-01T03:06:11.817Z,2.15
2022-10-01T03:07:13.836Z,2.17
2022-10-01T03:08:15.551Z,1.95
2022-10-01T03:09:17.355Z,2.10
2022-10-01T03:10:19.923Z,2.22
2022-10-01T03:11:21.745Z,2.22
2022-10-01T03:12:23.813Z,2.20
2022-10-01T03:13:25.605Z,2.65
2022-10-01T03:14:28.279Z,2.10
2022-10-01T03:15:30.000Z,2.00
2022-10-01T03:16:31.711Z,2.30
2022-10-01T03:17:33.457Z,2.40
2022-10-01T03:18:35.168Z,2.03
2022-10-01T03:19:37.145Z,1.77
2022-10-01T03:20:39.033Z,2.33
2022-10-01T03:21:40.869Z,2.17
2022-10-01T03:22:45.962Z,2.10
2022-10-01T03:23:47.655Z,1.95
2022-10-01T03:24:50.910Z,2.17
2022-10-01T03:25:52.753Z,2.10
2022-10-01T03:26:56.925Z,2.17
2022-10-01T03:27:59.071Z,2.13
2022-10-01T03:29:00.844Z,2.28
2022-10-01T03:30:02.599Z,1.67
2022-10-01T03:31:09.689Z,1.85
2022-10-01T03:32:12.334Z,2.10
2022-10-01T03:33:14.051Z,2.15
2022-10-01T03:34:15.900Z,1.92
2022-10-01T03:35:17.732Z,2.05
2022-10-01T03:36:19.633Z,2.13
2022-10-01T03:37:21.415Z,1.70
2022-10-01T03:38:23.118Z,2.17
2022-10-01T03:39:24.836Z,1.60
2022-10-01T03:40:26.776Z,1.75
2022-10-01T03:41:28.481Z,1.95
2022-10-01T03:42:30.254Z,2.00
2022-10-01T03:43:32.076Z,1.85
2022-10-01T03:44:34.149Z,2.00
2022-10-01T03:45:36.080Z,1.85
2022-10-01T03:46:37.854Z,1.65
2022-10-01T03:47:39.959Z,1.75
2022-10-01T03:48:42.240Z,1.60
2022-10-01T03:49:43.988Z,1.80
2022-10-01T03:50:56.706Z,2.20
2022-10-01T03:51:59.467Z,1.80
2022-10-01T03:53:01.164Z,2.13
2022-10-01T03:54:04.856Z,1.77
2022-10-01T03:55:07.211Z,2.10
2022-10-01T03:56:09.073Z,2.03
2022-10-01T03:57:10.972Z,2.00
2022-10-01T03:58:12.985Z,2.03
2022-10-01T03:59:15.030Z,1.90
2022-10-01T04:00:18.470Z,1.92
2022-10-01T04:01:20.841Z,1.90
2022-10-01T04:02:22.755Z,2.15
2022-10-01T04:03:24.641Z,2.00
2022-10-01T04:04:28.935Z,2.03
2022-10-01T04:05:31.082Z,1.80
2022-10-01T04:06:33.284Z,2.00
2022-10-01T04:07:35.048Z,1.88
2022-10-01T04:08:38.024Z,1.80
2022-10-01T04:09:39.713Z,1.83
2022-10-01T04:10:42.032Z,1.77
2022-10-01T04:11:44.047Z,1.73
2022-10-01T04:12:45.760Z,1.98
2022-10-01T04:13:47.841Z,1.70
2022-10-01T04:14:49.659Z,1.80
2022-10-01T04:15:51.480Z,1.63
2022-10-01T04:16:53.256Z,1.60
2022-10-01T04:17:55.020Z,1.80
2022-10-01T04:18:56.717Z,1.60
2022-10-01T04:20:00.288Z,1.90
2022-10-01T04:21:03.712Z,1.33
2022-10-01T04:22:05.513Z,1.30
2022-10-01T04:23:07.412Z,1.23
2022-10-01T04:24:09.119Z,1.60
2022-10-01T04:25:12.407Z,1.58
2022-10-01T04:26:14.196Z,1.33
2022-10-01T04:27:15.937Z,1.40
2022-10-01T04:28:17.771Z,1.55
2022-10-01T04:29:19.596Z,1.25
2022-10-01T04:30:21.800Z,1.25
2022-10-01T04:31:26.491Z,1.40
2022-10-01T04:32:28.392Z,1.38
2022-10-01T04:33:30.111Z,1.20
2022-10-01T04:34:50.402Z,1.40
2022-10-01T04:35:52.128Z,1.30
2022-10-01T04:36:53.902Z,1.00
2022-10-01T04:37:57.275Z,1.38
2022-10-01T04:39:02.190Z,1.30
2022-10-01T04:40:06.103Z,1.02
2022-10-01T04:41:09.297Z,1.25
2022-10-01T04:42:13.469Z,1.20
2022-10-01T04:43:15.172Z,1.30
2022-10-01T04:44:16.944Z,1.00
2022-10-01T04:45:18.751Z,1.20
2022-10-01T04:46:20.868Z,1.00
2022-10-01T04:47:23.054Z,1.00
2022-10-01T04:48:24.783Z,0.90
2022-10-01T04:49:26.545Z,1.15
2022-10-01T04:50:28.577Z,1.00
2022-10-01T04:51:30.365Z,1.23
2022-10-01T04:52:32.059Z,1.30
2022-10-01T04:53:33.748Z,0.90
2022-10-01T04:54:35.718Z,1.10
2022-10-01T04:55:37.907Z,1.40
2022-10-01T04:56:39.645Z,1.10
2022-10-01T04:57:41.895Z,1.10
2022-10-01T04:58:43.664Z,0.90
2022-10-01T04:59:45.601Z,1.58
2022-10-01T05:00:49.414Z,1.30
2022-10-01T05:01:51.692Z,1.20
2022-10-01T05:02:54.023Z,1.13
2022-10-01T05:03:55.727Z,0.95
2022-10-01T05:04:57.455Z,1.45
2022-10-01T05:05:59.181Z,1.00
2022-10-01T05:07:00.887Z,1.23
2022-10-01T05:08:03.188Z,1.10
2022-10-01T05:09:04.880Z,1.27
2022-10-01T05:10:10.263Z,1.20
2022-10-01T05:11:11.979Z,1.30
2022-10-01T05:12:13.768Z,1.42
2022-10-01T05:13:15.486Z,1.27
2022-10-01T05:14:17.397Z,1.50
2022-10-01T05:15:19.593Z,1.08
2022-10-01T05:16:21.340Z,1.45
2022-10-01T05:17:23.247Z,1.40
2022-10-01T05:18:25.207Z,1.33
2022-10-01T05:19:29.366Z,1.00
2022-10-01T05:20:31.335Z,1.20
2022-10-01T05:21:33.262Z,1.20
2022-10-01T05:22:35.253Z,1.40
2022-10-01T05:23:37.584Z,1.25
2022-10-01T05:24:40.203Z,1.20
2022-10-01T05:25:42.812Z,1.55
2022-10-01T05:26:45.054Z,1.10
2022-10-01T05:27:47.185Z,0.98
2022-10-01T05:28:48.990Z,1.48
2022-10-01T05:29:51.226Z,1.05
2022-10-01T05:30:52.921Z,1.30
2022-10-01T05:31:55.131Z,1.40
2022-10-01T05:32:58.901Z,1.10
2022-10-01T05:34:00.682Z,1.42
2022-10-01T05:35:03.156Z,1.30
2022-10-01T05:36:06.949Z,1.38
2022-10-01T05:37:09.587Z,1.55
2022-10-01T05:38:11.291Z,1.30
2022-10-01T05:39:13.259Z,1.30
2022-10-01T05:40:15.393Z,0.93
2022-10-01T05:41:17.155Z,1.20
2022-10-01T05:42:18.984Z,1.50
2022-10-01T05:43:20.720Z,1.10
2022-10-01T05:44:23.404Z,1.40
2022-10-01T05:45:27.760Z,1.30
2022-10-01T05:46:29.560Z,1.20
2022-10-01T05:47:31.424Z,1.30
2022-10-01T05:48:37.923Z,1.33
2022-10-01T05:49:44.558Z,1.23
2022-10-01T05:50:46.685Z,1.48
2022-10-01T05:51:49.076Z,1.20
2022-10-01T05:52:53.046Z,1.08
2022-10-01T05:53:55.837Z,1.20
2022-10-01T05:54:58.640Z,1.20
2022-10-01T05:56:02.965Z,1.00
2022-10-01T05:57:05.837Z,1.30
2022-10-01T05:58:10.553Z,1.08
2022-10-01T05:59:12.592Z,1.27
2022-10-01T06:00:14.809Z,1.00
2022-10-01T06:01:16.560Z,1.23
2022-10-01T06:02:18.469Z,1.17
2022-10-01T06:03:20.352Z,1.10
2022-10-01T06:04:22.075Z,1.17
2022-10-01T06:05:24.682Z,1.10
2022-10-01T06:06:27.722Z,1.08
2022-10-01T06:07:32.492Z,1.38
2022-10-01T06:08:35.365Z,1.20
2022-10-01T06:09:37.101Z,1.10
2022-10-01T06:10:39.581Z,1.38
2022-10-01T06:11:42.038Z,1.20
2022-10-01T06:12:44.034Z,1.50
2022-10-01T06:13:46.868Z,1.23
2022-10-01T06:14:48.568Z,1.52
2022-10-01T06:15:52.817Z,1.42
2022-10-01T06:16:55.079Z,1.13
2022-10-01T06:17:56.931Z,1.20
2022-10-01T06:18:58.801Z,1.40
2022-10-01T06:20:00.795Z,1.50
2022-10-01T06:21:02.726Z,1.35
2022-10-01T06:22:04.431Z,1.50
2022-10-01T06:23:09.681Z,1.42
2022-10-01T06:24:11.913Z,1.45
2022-10-01T06:25:14.212Z,1.58
2022-10-01T06:26:16.890Z,1.40
2022-10-01T06:27:18.928Z,1.50
2022-10-01T06:28:20.786Z,1.42
2022-10-01T06:29:23.295Z,1.20
2022-10-01T06:30:31.786Z,1.40
2022-10-01T06:31:33.978Z,1.42
2022-10-01T06:32:36.444Z,1.20
2022-10-01T06:33:38.207Z,1.30
2022-10-01T06:34:39.997Z,1.30
2022-10-01T06:35:44.375Z,1.27
2022-10-01T06:36:46.132Z,1.40
2022-10-01T06:37:47.846Z,1.40
2022-10-01T06:38:49.673Z,1.30
2022-10-01T06:39:51.429Z,1.30
2022-10-01T06:41:00.790Z,1.38
2022-10-01T06:42:02.474Z,1.40
2022-10-01T06:43:04.528Z,1.20
2022-10-01T06:44:06.424Z,1.40
2022-10-01T06:45:08.551Z,1.20
2022-10-01T06:46:11.435Z,1.20
2022-10-01T06:47:13.205Z,1.40
2022-10-01T06:48:17.170Z,1.48
2022-10-01T06:49:20.656Z,1.30
2022-10-01T06:50:23.509Z,1.20
2022-10-01T06:51:45.213Z,1.10
2022-10-01T06:52:49.902Z,1.45
2022-10-01T06:53:51.612Z,1.10
2022-10-01T06:54:53.355Z,1.13
2022-10-01T06:55:55.823Z,1.30
2022-10-01T06:56:57.580Z,1.15
2022-10-01T06:58:03.886Z,1.20
2022-10-01T06:59:05.645Z,1.20
2022-10-01T07:00:08.112Z,1.20
2022-10-01T07:01:10.045Z,1.33
2022-10-01T07:02:23.877Z,1.23
2022-10-01T07:03:25.864Z,1.25
2022-10-01T07:04:27.568Z,1.38
2022-10-01T07:05:30.063Z,1.10
2022-10-01T07:06:32.787Z,1.35
2022-10-01T07:07:37.940Z,1.40
2022-10-01T07:08:40.602Z,1.45
2022-10-01T07:09:42.344Z,1.10
2022-10-01T07:10:44.479Z,1.20
2022-10-01T07:11:46.166Z,1.40
2022-10-01T07:12:51.534Z,1.30
2022-10-01T07:13:54.735Z,1.35
2022-10-01T07:14:56.726Z,1.27
2022-10-01T07:15:58.510Z,1.25
2022-10-01T07:17:00.639Z,1.23
2022-10-01T07:18:02.558Z,1.50
2022-10-01T07:19:04.352Z,1.08
2022-10-01T07:20:06.850Z,1.35
2022-10-01T07:21:08.853Z,1.50
2022-10-01T07:22:10.569Z,1.13
2022-10-01T07:23:14.572Z,1.10
2022-10-01T07:24:16.591Z,1.30
2022-10-01T07:25:18.514Z,1.17
2022-10-01T07:26:20.216Z,1.33
2022-10-01T07:27:21.973Z,1.10
2022-10-01T07:28:25.797Z,1.33
2022-10-01T07:29:27.800Z,1.10
2022-10-01T07:30:30.070Z,1.17
2022-10-01T07:31:32.371Z,1.10
2022-10-01T07:32:35.635Z,1.40
2022-10-01T07:33:38.530Z,1.75
2022-10-01T07:34:40.468Z,1.50
2022-10-01T07:35:42.376Z,1.10
2022-10-01T07:36:45.289Z,1.50
2022-10-01T07:37:50.954Z,1.30
2022-10-01T07:38:52.743Z,1.50
2022-10-01T07:39:54.519Z,1.50
2022-10-01T07:40:56.356Z,1.40
2022-10-01T07:41:59.033Z,1.27
2022-10-01T07:43:00.746Z,1.20
2022-10-01T07:44:04.139Z,1.30
2022-10-01T07:45:06.804Z,1.40
2022-10-01T07:46:08.605Z,1.50
2022-10-01T07:47:10.388Z,1.33
2022-10-01T07:48:12.150Z,1.10
2022-10-01T07:49:14.811Z,1.20
2022-10-01T07:50:16.661Z,1.20
2022-10-01T07:51:18.550Z,1.13
2022-10-01T07:52:20.252Z,1.00
2022-10-01T07:53:24.162Z,0.90
2022-10-01T07:54:26.623Z,1.10
2022-10-01T07:55:30.831Z,1.20
2022-10-01T07:56:32.613Z,1.20
2022-10-01T07:57:35.166Z,1.00
2022-10-01T07:58:37.117Z,1.08
2022-10-01T07:59:40.425Z,1.10
2022-10-01T08:00:43.636Z,0.95
2022-10-01T08:01:49.912Z,1.00
2022-10-01T08:02:53.948Z,0.70
2022-10-01T08:03:56.008Z,0.80
2022-10-01T08:05:16.230Z,0.85
2022-10-01T08:06:24.598Z,0.73
2022-10-01T08:07:27.871Z,0.50
2022-10-01T08:08:31.217Z,0.80
2022-10-01T08:09:33.119Z,0.60
2022-10-01T08:10:36.961Z,0.90
2022-10-01T08:11:38.698Z,0.40
2022-10-01T08:12:42.787Z,0.70
2022-10-01T08:13:45.898Z,0.63
2022-10-01T08:14:47.968Z,0.60
2022-10-01T08:15:50.696Z,0.57
2022-10-01T08:16:55.823Z,0.50
2022-10-01T08:18:01.591Z,0.30
2022-10-01T08:19:03.473Z,0.43
2022-10-01T08:20:07.633Z,0.55
2022-10-01T08:21:09.501Z,0.47
2022-10-01T08:22:12.357Z,0.47
2022-10-01T08:23:16.718Z,0.40
2022-10-01T08:24:18.501Z,0.55
2022-10-01T08:25:20.207Z,0.50
2022-10-01T08:26:21.916Z,0.40
2022-10-01T08:27:25.363Z,0.50
2022-10-01T08:28:27.756Z,0.45
2022-10-01T08:29:29.536Z,0.50
2022-10-01T08:30:31.622Z,0.60
2022-10-01T08:31:33.738Z,0.63
2022-10-01T08:32:35.786Z,0.60
2022-10-01T08:33:38.576Z,0.50
2022-10-01T08:34:40.373Z,0.52
2022-10-01T08:35:43.703Z,0.55
2022-10-01T08:36:45.898Z,1.00
2022-10-01T08:37:47.601Z,0.80
2022-10-01T08:38:49.360Z,0.68
2022-10-01T08:39:51.213Z,0.70
2022-10-01T08:40:52.996Z,1.00
2022-10-01T08:42:08.552Z,0.60
2022-10-01T08:43:29.516Z,0.65
2022-10-01T08:44:41.252Z,0.80
2022-10-01T08:45:49.189Z,0.65
2022-10-01T08:46:52.708Z,0.75
2022-10-01T08:48:05.523Z,0.80
2022-10-01T08:49:22.912Z,0.50
2022-10-01T08:50:30.676Z,0.60
2022-10-01T08:51:52.389Z,0.70
2022-10-01T08:53:01.785Z,0.75
2022-10-01T08:54:28.997Z,0.70
2022-10-01T08:55:36.510Z,0.52
2022-10-01T08:56:44.401Z,0.75
2022-10-01T08:57:53.496Z,0.60
2022-10-01T08:59:02.824Z,0.70
2022-10-01T09:00:08.492Z,1.13
2022-10-01T09:01:11.867Z,0.80
2022-10-01T09:02:24.037Z,0.77
2022-10-01T09:03:30.193Z,0.88
2022-10-01T09:04:32.060Z,0.70
2022-10-01T09:06:07.973Z,0.82
2022-10-01T09:07:45.101Z,1.00
2022-10-01T09:08:57.297Z,0.95
2022-10-01T09:10:24.807Z,0.90
2022-10-01T09:11:38.778Z,0.90
2022-10-01T09:13:10.555Z,1.10
2022-10-01T09:14:25.008Z,1.08
2022-10-01T09:15:59.298Z,0.80
2022-10-01T09:17:34.951Z,0.70
2022-10-01T09:19:06.493Z,0.82
2022-10-01T09:20:16.810Z,0.77
2022-10-01T09:21:32.915Z,0.80
2022-10-01T09:22:44.542Z,0.80
2022-10-01T09:24:13.168Z,0.90
2022-10-01T09:25:27.738Z,0.80
2022-10-01T09:26:29.491Z,0.90
2022-10-01T09:27:31.998Z,1.00
2022-10-01T09:28:35.388Z,0.90
2022-10-01T09:29:43.213Z,0.98
2022-10-01T09:30:54.874Z,1.20
2022-10-01T09:31:58.863Z,1.00
2022-10-01T09:33:16.562Z,1.05
2022-10-01T09:34:29.890Z,1.00
2022-10-01T09:35:40.617Z,1.05
2022-10-01T09:36:45.493Z,0.90
2022-10-01T09:38:08.426Z,1.02
2022-10-01T09:39:15.138Z,1.38
2022-10-01T09:40:35.646Z,1.42
2022-10-01T09:41:37.717Z,1.00
2022-10-01T09:42:39.411Z,0.95
2022-10-01T09:43:43.869Z,1.30
2022-10-01T09:44:47.579Z,1.05
2022-10-01T09:45:52.573Z,1.20
2022-10-01T09:46:58.093Z,1.20
2022-10-01T09:48:12.884Z,1.20
2022-10-01T09:49:44.136Z,1.10
2022-10-01T09:50:59.022Z,1.30
2022-10-01T09:52:10.501Z,1.25
2022-10-01T09:53:20.226Z,1.48
2022-10-01T09:54:39.465Z,1.10
2022-10-01T09:55:44.335Z,0.95
2022-10-01T09:56:57.564Z,1.02
2022-10-01T09:58:08.222Z,1.00
2022-10-01T09:59:20.507Z,1.05
2022-10-01T10:00:25.158Z,1.00
2022-10-01T10:01:44.014Z,1.08
2022-10-01T10:02:54.426Z,1.27
2022-10-01T10:03:58.016Z,1.02
2022-10-01T10:05:14.315Z,1.10
2022-10-01T10:06:16.167Z,1.20
2022-10-01T10:07:19.229Z,1.10
2022-10-01T10:08:21.316Z,1.30
2022-10-01T10:09:30.173Z,1.27
2022-10-01T10:10:35.808Z,1.10
2022-10-01T10:11:42.809Z,1.50
2022-10-01T10:12:45.716Z,1.08
2022-10-01T10:13:56.338Z,1.17
2022-10-01T10:15:08.683Z,1.30
2022-10-01T10:16:27.051Z,1.00
2022-10-01T10:17:29.055Z,1.40
2022-10-01T10:18:36.415Z,1.60
2022-10-01T10:19:39.251Z,1.58
2022-10-01T10:20:44.735Z,1.10
2022-10-01T10:21:59.764Z,1.00
2022-10-01T10:23:19.141Z,1.50
2022-10-01T10:24:41.075Z,1.23
2022-10-01T10:25:43.487Z,1.30
2022-10-01T10:26:56.510Z,1.20
2022-10-01T10:27:59.715Z,1.10
2022-10-01T10:29:03.189Z,1.10
2022-10-01T10:30:13.874Z,1.02
2022-10-01T10:31:24.578Z,1.20
2022-10-01T10:32:27.708Z,1.27
2022-10-01T10:33:29.534Z,0.80
2022-10-01T10:34:40.648Z,1.20
2022-10-01T10:35:43.473Z,1.00
2022-10-01T10:36:46.806Z,0.90
2022-10-01T10:37:51.568Z,1.00
2022-10-01T10:38:53.831Z,0.98
2022-10-01T10:39:57.288Z,1.20
2022-10-01T10:40:59.434Z,1.08
2022-10-01T10:42:04.114Z,1.00
2022-10-01T10:43:06.024Z,1.30
2022-10-01T10:44:08.624Z,0.93
2022-10-01T10:45:18.420Z,0.93
2022-10-01T10:46:31.603Z,1.27
2022-10-01T10:47:45.660Z,1.00
2022-10-01T10:48:58.896Z,1.20
2022-10-01T10:50:04.888Z,1.17
2022-10-01T10:51:06.927Z,1.00
2022-10-01T10:52:19.871Z,0.85
2022-10-01T10:53:24.811Z,1.00
2022-10-01T10:54:33.579Z,1.10
2022-10-01T10:55:35.408Z,1.00
2022-10-01T10:56:38.512Z,1.00
2022-10-01T10:57:40.237Z,1.27
2022-10-01T10:58:43.090Z,1.05
2022-10-01T10:59:57.403Z,1.40
2022-10-01T11:01:10.142Z,0.95
2022-10-01T11:02:21.315Z,1.30
2022-10-01T11:03:27.252Z,1.00
2022-10-01T11:04:38.191Z,0.95
2022-10-01T11:05:42.396Z,1.00
2022-10-01T11:06:54.811Z,1.00
2022-10-01T11:08:00.574Z,1.10
2022-10-01T11:09:08.981Z,1.23
2022-10-01T11:10:30.238Z,1.20
2022-10-01T11:11:53.507Z,1.00
2022-10-01T11:13:12.873Z,1.08
2022-10-01T11:14:40.137Z,1.05
2022-10-01T11:16:09.012Z,1.10
2022-10-01T11:17:31.091Z,1.17
2022-10-01T11:18:41.536Z,1.00
2022-10-01T11:19:59.648Z,1.00
2022-10-01T11:21:10.072Z,1.10
2022-10-01T11:22:24.543Z,1.17
2022-10-01T11:23:38.099Z,1.15
2022-10-01T11:24:52.246Z,1.20
2022-10-01T11:26:34.215Z,1.15
2022-10-01T11:27:45.266Z,1.17
2022-10-01T11:29:09.631Z,0.90
2022-10-01T11:30:20.827Z,1.00
2022-10-01T11:31:43.933Z,1.13
2022-10-01T11:32:49.554Z,1.17
2022-10-01T11:34:03.388Z,1.08
2022-10-01T11:35:14.017Z,0.93
2022-10-01T11:36:15.938Z,1.00
2022-10-01T11:37:35.664Z,1.20
2022-10-01T11:38:43.448Z,1.00
2022-10-01T11:39:49.183Z,1.15
2022-10-01T11:41:26.965Z,0.90
2022-10-01T11:42:36.321Z,1.10
2022-10-01T11:43:44.359Z,1.02
2022-10-01T11:45:00.559Z,1.17
2022-10-01T11:46:10.678Z,1.00
2022-10-01T11:47:31.174Z,0.95
2022-10-01T11:48:51.290Z,1.20
2022-10-01T11:49:55.784Z,1.02
2022-10-01T11:51:05.538Z,0.95
2022-10-01T11:52:11.484Z,0.98
2022-10-01T11:53:22.029Z,1.10
2022-10-01T11:54:27.770Z,1.00
2022-10-01T11:55:53.720Z,0.88
2022-10-01T11:57:17.312Z,0.93
2022-10-01T11:58:55.319Z,0.77
2022-10-01T12:00:04.263Z,0.80
2022-10-01T12:01:25.235Z,1.08
2022-10-01T12:02:35.852Z,0.90
2022-10-01T12:03:51.166Z,0.98
2022-10-01T12:04:58.216Z,0.90
2022-10-01T12:06:00.692Z,0.93
2022-10-01T12:07:28.937Z,0.80
2022-10-01T12:08:32.660Z,0.93
2022-10-01T12:09:48.478Z,1.05
2022-10-01T12:11:21.176Z,0.90
2022-10-01T12:12:28.151Z,1.20
2022-10-01T12:13:40.294Z,0.90
2022-10-01T12:15:23.085Z,1.00
2022-10-01T12:16:37.215Z,1.20
2022-10-01T12:18:01.570Z,1.10
2022-10-01T12:19:14.858Z,1.30
2022-10-01T12:20:43.636Z,1.20
2022-10-01T12:22:07.822Z,1.30
2022-10-01T12:23:18.069Z,1.40
2022-10-01T12:24:29.388Z,1.25
2022-10-01T12:25:51.828Z,1.15
2022-10-01T12:27:09.088Z,1.20
2022-10-01T12:28:18.202Z,1.05
2022-10-01T12:29:25.499Z,1.20
2022-10-01T12:30:41.998Z,1.10
2022-10-01T12:32:06.114Z,1.23
2022-10-01T12:33:20.147Z,1.10
2022-10-01T12:34:37.050Z,1.08
2022-10-01T12:35:51.453Z,1.40
2022-10-01T12:36:53.294Z,0.73
2022-10-01T12:38:10.045Z,1.05
2022-10-01T12:39:42.167Z,1.00
2022-10-01T12:40:53.878Z,0.95
2022-10-01T12:42:04.007Z,1.17
2022-10-01T12:43:30.164Z,0.90
2022-10-01T12:44:40.590Z,1.25
2022-10-01T12:45:48.045Z,0.95
2022-10-01T12:47:17.958Z,0.98
2022-10-01T12:48:32.717Z,0.88
2022-10-01T12:49:41.319Z,1.10
2022-10-01T12:50:45.791Z,1.10
2022-10-01T12:51:53.168Z,1.00
2022-10-01T12:53:48.405Z,1.05
2022-10-01T12:54:58.934Z,1.13
2022-10-01T12:56:18.777Z,0.90
2022-10-01T12:57:38.108Z,1.00
2022-10-01T12:59:11.941Z,1.25
2022-10-01T13:00:26.268Z,0.95
2022-10-01T13:01:34.595Z,0.80
2022-10-01T13:03:14.873Z,0.90
2022-10-01T13:04:28.544Z,0.77
2022-10-01T13:06:01.267Z,1.27
2022-10-01T13:07:18.942Z,1.00
2022-10-01T13:08:47.754Z,0.70
2022-10-01T13:10:18.802Z,1.00
2022-10-01T13:11:46.619Z,0.98
2022-10-01T13:13:07.853Z,1.10
2022-10-01T13:14:16.943Z,0.80
2022-10-01T13:15:25.731Z,1.00
2022-10-01T13:16:39.270Z,1.00
2022-10-01T13:17:51.132Z,1.10
2022-10-01T13:19:17.099Z,1.08
2022-10-01T13:20:30.268Z,1.10
2022-10-01T13:21:33.037Z,1.00
2022-10-01T13:22:50.904Z,1.00
2022-10-01T13:23:53.522Z,0.98
2022-10-01T13:25:20.039Z,1.20
2022-10-01T13:26:48.502Z,1.20
2022-10-01T13:28:22.639Z,1.13
2022-10-01T13:29:30.639Z,0.93
2022-10-01T13:30:51.006Z,1.13
2022-10-01T13:31:57.410Z,0.85
2022-10-01T13:33:05.342Z,0.80
2022-10-01T13:34:33.405Z,1.10
2022-10-01T13:35:39.729Z,1.00
2022-10-01T13:36:41.656Z,1.08
2022-10-01T13:37:44.924Z,1.08
2022-10-01T13:38:47.716Z,1.13
2022-10-01T13:39:49.654Z,1.20
2022-10-01T13:41:04.071Z,0.93
2022-10-01T13:42:06.109Z,1.02
2022-10-01T13:43:16.365Z,1.08
2022-10-01T13:44:44.260Z,0.95
2022-10-01T13:45:49.136Z,0.90
2022-10-01T13:47:00.053Z,0.85
2022-10-01T13:48:07.151Z,1.20
2022-10-01T13:49:25.577Z,1.02
2022-10-01T13:50:27.324Z,0.80
2022-10-01T13:51:40.711Z,0.70
2022-10-01T13:52:42.477Z,0.98
2022-10-01T13:53:44.979Z,0.90
2022-10-01T13:54:50.904Z,0.82
2022-10-01T13:55:54.633Z,0.80
2022-10-01T13:57:07.932Z,0.80
2022-10-01T13:58:44.108Z,1.02
2022-10-01T13:59:45.807Z,1.20
2022-10-01T14:00:49.933Z,1.10
2022-10-01T14:01:52.107Z,1.02
2022-10-01T14:03:05.981Z,0.90
2022-10-01T14:04:23.713Z,1.00
2022-10-01T14:05:42.323Z,1.00
2022-10-01T14:06:58.951Z,1.33
2022-10-01T14:08:50.315Z,1.25
2022-10-01T14:09:54.816Z,1.00
2022-10-01T14:11:31.675Z,0.90
2022-10-01T14:12:54.190Z,1.40
2022-10-01T14:14:22.501Z,1.00
2022-10-01T14:15:49.053Z,1.10
2022-10-01T14:16:51.026Z,1.13
2022-10-01T14:17:55.895Z,1.13
2022-10-01T14:18:57.915Z,1.10
2022-10-01T14:20:01.164Z,1.20
2022-10-01T14:21:21.558Z,1.08
2022-10-01T14:22:45.093Z,1.20
2022-10-01T14:24:06.220Z,1.40
2022-10-01T14:25:13.570Z,1.17
2022-10-01T14:26:26.167Z,1.30
2022-10-01T14:27:45.467Z,1.20
2022-10-01T14:28:58.992Z,1.10
2022-10-01T14:30:09.995Z,0.82
2022-10-01T14:31:39.113Z,0.98
2022-10-01T14:33:05.240Z,1.10
2022-10-01T14:34:15.952Z,1.30
2022-10-01T14:35:28.435Z,1.10
2022-10-01T14:36:35.271Z,1.08
2022-10-01T14:37:39.445Z,0.93
2022-10-01T14:38:41.496Z,0.85
2022-10-01T14:39:43.229Z,1.05
2022-10-01T14:40:48.974Z,1.15
2022-10-01T14:41:52.767Z,1.27
2022-10-01T14:43:15.941Z,1.15
2022-10-01T14:44:30.152Z,1.00
2022-10-01T14:45:31.971Z,1.30
2022-10-01T14:46:36.167Z,1.23
2022-10-01T14:47:38.199Z,1.50
2022-10-01T14:48:40.752Z,1.30
2022-10-01T14:49:42.509Z,1.50
2022-10-01T14:50:49.342Z,1.45
2022-10-01T14:51:57.075Z,1.50
2022-10-01T14:52:59.052Z,1.33
2022-10-01T14:54:00.872Z,1.83
2022-10-01T14:55:11.884Z,1.50
2022-10-01T14:56:15.411Z,1.33
2022-10-01T14:57:38.856Z,1.50
2022-10-01T14:58:47.139Z,1.35
2022-10-01T14:59:49.146Z,1.20
2022-10-01T15:00:52.398Z,1.30
2022-10-01T15:01:57.319Z,1.30
2022-10-01T15:03:04.517Z,1.60